Time;durP1;ratioP1;P1;durP2;ratioP2;P2;SDS_P1;SDS_P2;PMS_P1;PMS_P2;Temp;Humidity;BMP_temperature;BMP_pressure;BME280_temperature;BME280_humidity;BME280_pressure;Samples;Min_cycle;Max_cycle;Signal;HPM_P1;HPM_P2
2023/10/10 00:00:47;;;;;;;0.17;0.17;;;15.60;99.90;;;;;;5030771;28;20090;-87
2023/10/10 00:03:14;;;;;;;0.20;0.20;;;15.50;99.90;;;;;;5015058;28;20079;-87
2023/10/10 00:05:40;;;;;;;0.10;0.10;;;15.50;99.90;;;;;;5015041;28;20092;-88
2023/10/10 00:08:09;;;;;;;0.10;0.10;;;15.50;99.90;;;;;;5013973;28;20045;-87
2023/10/10 00:10:36;;;;;;;0.10;0.10;;;15.60;99.90;;;;;;5013860;28;20051;-87
2023/10/10 00:13:04;;;;;;;0.15;0.15;;;15.50;99.90;;;;;;5004424;28;20485;-87
2023/10/10 00:15:34;;;;;;;0.13;0.13;;;15.60;99.90;;;;;;5014843;28;20061;-87
2023/10/10 00:18:11;;;;;;;0.20;0.20;;;15.50;99.90;;;;;;5013728;28;20048;-87
2023/10/10 00:20:44;;;;;;;0.10;0.10;;;15.50;99.90;;;;;;5017213;28;20055;-87
2023/10/10 00:23:15;;;;;;;0.10;0.10;;;15.50;99.90;;;;;;5012414;28;20404;-88
2023/10/10 00:25:42;;;;;;;0.20;0.20;;;15.50;99.90;;;;;;5011901;28;20037;-88
2023/10/10 00:28:21;;;;;;;0.20;0.20;;;15.50;99.90;;;;;;5014177;28;20045;-88
2023/10/10 00:30:47;;;;;;;0.20;0.20;;;15.50;99.90;;;;;;5010094;28;20045;-89
2023/10/10 00:33:16;;;;;;;0.20;0.20;;;15.60;99.90;;;;;;5007465;28;20069;-88
2023/10/10 00:35:47;;;;;;;0.13;0.13;;;15.50;99.90;;;;;;5006117;28;20493;-88
2023/10/10 00:38:22;;;;;;;0.20;0.20;;;15.60;99.90;;;;;;5009202;28;20099;-87
2023/10/10 00:40:48;;;;;;;0.20;0.20;;;15.50;99.90;;;;;;5014323;28;20049;-88
2023/10/10 00:43:16;;;;;;;0.20;0.20;;;15.50;99.90;;;;;;5013478;28;20045;-88
2023/10/10 00:46:04;;;;;;;0.10;0.10;;;15.50;99.90;;;;;;5013571;28;20041;-87
2023/10/10 00:48:32;;;;;;;0.20;0.20;;;15.50;99.90;;;;;;5013684;28;20115;-88
2023/10/10 00:51:10;;;;;;;0.10;0.10;;;15.50;99.90;;;;;;5013452;28;20477;-88
2023/10/10 00:53:39;;;;;;;0.10;0.10;;;15.50;99.90;;;;;;5015408;28;20061;-88
2023/10/10 00:56:06;;;;;;;0.20;0.20;;;15.50;99.90;;;;;;5016075;28;20076;-88
2023/10/10 00:58:36;;;;;;;0.17;0.17;;;15.50;99.90;;;;;;5016421;28;20037;-88
2023/10/10 01:01:09;;;;;;;0.20;0.20;;;15.50;99.90;;;;;;5014641;28;20084;-88
2023/10/10 01:03:45;;;;;;;0.20;0.20;;;15.60;99.90;;;;;;5014087;28;20064;-88
2023/10/10 01:06:45;;;;;;;0.10;0.10;;;15.50;99.90;;;;;;5013971;28;20044;-88
2023/10/10 01:09:16;;;;;;;0.20;0.20;;;15.50;99.90;;;;;;5007828;28;20055;-88
2023/10/10 01:11:43;;;;;;;0.10;0.10;;;15.50;99.90;;;;;;5014658;28;20124;-88
2023/10/10 01:14:09;;;;;;;0.10;0.10;;;15.50;99.90;;;;;;5011018;28;20095;-88
2023/10/10 01:16:35;;;;;;;0.10;0.10;;;15.50;99.90;;;;;;5013390;28;20037;-88
2023/10/10 01:19:02;;;;;;;0.20;0.20;;;15.50;99.90;;;;;;5013601;28;20041;-88
2023/10/10 01:21:42;;;;;;;0.20;0.20;;;15.50;99.90;;;;;;5014383;28;20044;-88
2023/10/10 01:24:08;;;;;;;0.17;0.17;;;15.50;99.90;;;;;;5011299;28;20045;-87
2023/10/10 01:26:38;;;;;;;0.20;0.20;;;15.50;99.90;;;;;;5014891;28;20105;-88
2023/10/10 01:31:45;;;;;;;0.20;0.20;;;15.40;99.90;;;;;;5009837;28;20127;-86
2023/10/10 01:34:30;;;;;;;0.20;0.20;;;15.50;99.90;;;;;;5009455;28;20039;-88
2023/10/10 01:37:20;;;;;;;0.20;0.20;;;15.40;99.90;;;;;;5010054;28;20049;-88
2023/10/10 01:40:06;;;;;;;0.20;0.20;;;15.50;99.90;;;;;;5008298;28;20058;-88
2023/10/10 01:42:37;;;;;;;0.10;0.10;;;15.40;99.90;;;;;;5011420;28;20409;-87
2023/10/10 01:45:08;;;;;;;0.10;0.10;;;15.50;99.90;;;;;;5006209;28;20041;-88
2023/10/10 01:47:39;;;;;;;0.20;0.20;;;15.50;99.90;;;;;;5012327;28;20128;-88
2023/10/10 01:50:12;;;;;;;0.13;0.13;;;15.50;99.90;;;;;;5010562;28;20038;-88
2023/10/10 01:52:38;;;;;;;0.10;0.10;;;15.50;99.90;;;;;;5008336;28;20485;-87
2023/10/10 01:55:05;;;;;;;0.10;0.10;;;15.50;99.90;;;;;;5013387;28;20056;-88
2023/10/10 01:57:31;;;;;;;0.20;0.20;;;15.50;99.90;;;;;;5013650;28;20302;-88
2023/10/10 01:59:58;;;;;;;0.15;0.15;;;15.50;99.90;;;;;;5010865;28;20120;-88
2023/10/10 02:02:30;;;;;;;0.17;0.17;;;15.50;99.90;;;;;;5013351;28;20068;-88
2023/10/10 02:04:59;;;;;;;0.20;0.20;;;15.50;99.90;;;;;;5013407;28;20535;-88
2023/10/10 02:07:31;;;;;;;0.20;0.20;;;15.50;99.90;;;;;;5012183;28;20505;-88
2023/10/10 02:10:12;;;;;;;0.20;0.20;;;15.50;99.90;;;;;;5012141;28;20103;-88
2023/10/10 02:12:44;;;;;;;0.20;0.20;;;15.50;99.90;;;;;;5013644;28;20044;-88
2023/10/10 02:15:12;;;;;;;0.20;0.20;;;15.50;99.90;;;;;;5004888;28;20045;-88
2023/10/10 02:17:56;;;;;;;0.20;0.20;;;15.50;99.90;;;;;;5007827;28;20041;-88
2023/10/10 02:23:44;;;;;;;0.17;0.17;;;15.50;99.90;;;;;;5015756;28;20053;-89
2023/10/10 02:25:39;;;;;;;0.10;0.10;;;15.50;99.90;;;;;;4998904;28;20046;-89
2023/10/10 02:28:19;;;;;;;0.20;0.20;;;15.50;99.90;;;;;;5012650;28;20045;-87
2023/10/10 02:30:49;;;;;;;0.20;0.20;;;15.50;99.90;;;;;;5007465;28;20455;-88
2023/10/10 02:36:02;;;;;;;0.20;0.20;;;15.50;99.90;;;;;;5012079;28;20056;-89
2023/10/10 02:38:39;;;;;;;0.13;0.13;;;15.60;99.90;;;;;;5013475;28;20053;-88
2023/10/10 02:46:37;;;;;;;0.17;0.17;;;15.60;99.90;;;;;;5009058;28;20045;-88
2023/10/10 02:49:30;;;;;;;0.20;0.20;;;15.60;99.90;;;;;;5001151;28;20073;-88
2023/10/10 02:51:57;;;;;;;0.17;0.17;;;15.60;99.90;;;;;;5006335;28;20045;-88
2023/10/10 02:59:50;;;;;;;0.20;0.20;;;15.60;99.90;;;;;;5007182;28;20108;-88
2023/10/10 03:02:21;;;;;;;0.20;0.20;;;15.60;99.90;;;;;;5022264;28;20045;-88
2023/10/10 03:07:29;;;;;;;0.10;0.10;;;15.70;99.90;;;;;;5019243;28;20045;-89
2023/10/10 03:10:14;;;;;;;0.17;0.17;;;15.70;99.90;;;;;;5017227;28;20033;-88
2023/10/10 03:12:49;;;;;;;0.10;0.10;;;15.70;99.90;;;;;;5016535;28;20034;-88
2023/10/10 03:15:27;;;;;;;0.13;0.13;;;15.70;99.90;;;;;;5009641;28;20053;-88
2023/10/10 03:23:32;;;;;;;0.20;0.20;;;15.60;99.90;;;;;;4984417;28;20060;-88
2023/10/10 03:26:04;;;;;;;0.20;0.20;;;15.70;99.90;;;;;;5019162;28;20041;-89
2023/10/10 03:28:40;;;;;;;0.10;0.10;;;15.70;99.90;;;;;;5008343;28;20045;-89
2023/10/10 03:31:08;;;;;;;0.10;0.10;;;15.70;99.90;;;;;;5016851;28;20081;-89
2023/10/10 03:33:37;;;;;;;0.20;0.20;;;15.70;99.90;;;;;;5008174;28;20050;-88
2023/10/10 05:24:51;;;;;;;0.20;0.20;;;15.60;99.90;;;;;;5011057;28;20049;-87
2023/10/10 05:27:29;;;;;;;0.20;0.20;;;15.60;99.90;;;;;;5011151;28;20052;-88
2023/10/10 05:29:55;;;;;;;0.20;0.20;;;15.60;99.90;;;;;;5011321;28;20084;-88
2023/10/10 05:32:22;;;;;;;0.20;0.20;;;15.70;99.90;;;;;;5010525;28;20104;-88
2023/10/10 05:34:49;;;;;;;0.20;0.20;;;15.60;99.90;;;;;;5010543;28;20762;-88
2023/10/10 05:37:15;;;;;;;0.20;0.20;;;15.60;99.90;;;;;;5011419;28;20049;-89
2023/10/10 05:39:41;;;;;;;0.10;0.10;;;15.60;99.90;;;;;;5010358;28;20096;-87
2023/10/10 05:42:08;;;;;;;0.17;0.17;;;15.60;99.90;;;;;;5009229;28;20053;-88
2023/10/10 05:44:38;;;;;;;0.20;0.20;;;15.60;99.90;;;;;;5011492;28;20113;-88
2023/10/10 05:47:06;;;;;;;0.20;0.20;;;15.70;99.90;;;;;;5009777;28;20124;-88
2023/10/10 05:49:32;;;;;;;0.20;0.20;;;15.60;99.90;;;;;;5008092;28;20496;-88
2023/10/10 05:51:58;;;;;;;0.20;0.20;;;15.60;99.90;;;;;;5002958;28;20057;-84
2023/10/10 05:54:24;;;;;;;0.10;0.10;;;15.60;99.90;;;;;;5003059;28;20054;-84
2023/10/10 05:56:50;;;;;;;0.20;0.20;;;15.60;99.90;;;;;;5006438;28;20059;-86
2023/10/10 05:59:16;;;;;;;0.20;0.20;;;15.60;99.90;;;;;;5008201;28;20382;-85
2023/10/10 06:01:41;;;;;;;0.10;0.10;;;15.60;99.90;;;;;;5007550;28;20034;-86
2023/10/10 06:04:08;;;;;;;0.17;0.17;;;15.60;99.90;;;;;;5006950;28;20038;-84
2023/10/10 06:06:33;;;;;;;0.10;0.10;;;15.60;99.90;;;;;;5007153;28;20061;-84
2023/10/10 06:09:04;;;;;;;0.10;0.10;;;15.60;99.90;;;;;;5007918;28;20054;-83
2023/10/10 06:11:32;;;;;;;0.20;0.20;;;15.60;99.90;;;;;;5009065;28;20253;-85
2023/10/10 06:13:58;;;;;;;0.15;0.15;;;15.50;99.90;;;;;;5007502;28;20042;-86
2023/10/10 06:16:24;;;;;;;0.10;0.10;;;15.60;99.90;;;;;;5004571;28;20045;-86
2023/10/10 06:18:50;;;;;;;0.13;0.13;;;15.60;99.90;;;;;;5001852;28;20042;-84
2023/10/10 06:21:16;;;;;;;0.20;0.20;;;15.60;99.90;;;;;;5007649;28;20049;-84
2023/10/10 06:23:44;;;;;;;0.20;0.20;;;15.60;99.90;;;;;;5007745;28;20470;-85
2023/10/10 06:26:12;;;;;;;0.20;0.20;;;15.60;99.90;;;;;;5007697;28;20125;-82
2023/10/10 06:28:47;;;;;;;0.20;0.20;;;15.60;99.90;;;;;;5007066;28;20042;-84
2023/10/10 06:31:17;;;;;;;0.20;0.20;;;15.60;99.90;;;;;;5008171;28;20119;-86
2023/10/10 06:33:43;;;;;;;0.20;0.20;;;15.60;99.90;;;;;;5010825;28;20037;-86
2023/10/10 06:41:47;;;;;;;0.30;0.30;;;15.50;99.90;;;;;;5013564;28;20050;-85
2023/10/10 06:44:13;;;;;;;0.20;0.20;;;15.50;99.90;;;;;;5018890;28;20056;-84
2023/10/10 06:46:46;;;;;;;0.20;0.20;;;15.60;99.90;;;;;;5012716;28;20494;-83
2023/10/10 06:49:12;;;;;;;0.10;0.10;;;15.60;99.90;;;;;;5009958;28;20043;-85
2023/10/10 06:51:41;;;;;;;0.20;0.20;;;15.50;99.90;;;;;;5010947;28;20038;-72
2023/10/10 06:54:08;;;;;;;0.20;0.20;;;15.60;99.90;;;;;;5019529;28;20472;-72
2023/10/10 06:57:04;;;;;;;0.20;0.20;;;15.60;99.90;;;;;;5015453;28;20049;-72
2023/10/10 06:59:30;;;;;;;0.20;0.20;;;15.60;99.90;;;;;;5010220;28;20490;-72
2023/10/10 07:01:59;;;;;;;0.20;0.20;;;15.60;99.90;;;;;;5015238;28;20121;-72
2023/10/10 07:04:27;;;;;;;0.20;0.20;;;15.60;99.90;;;;;;5029567;28;20045;-72
2023/10/10 07:06:55;;;;;;;0.20;0.20;;;15.60;99.90;;;;;;5010782;28;20053;-72
2023/10/10 07:09:30;;;;;;;0.10;0.10;;;15.70;99.90;;;;;;5014300;28;20068;-73
2023/10/10 07:11:57;;;;;;;0.10;0.10;;;15.70;99.90;;;;;;5014282;28;20072;-72
2023/10/10 07:14:26;;;;;;;0.20;0.20;;;15.80;99.90;;;;;;5031977;28;20041;-72
2023/10/10 07:16:56;;;;;;;0.10;0.10;;;15.70;99.90;;;;;;5013000;28;20049;-72
2023/10/10 07:19:29;;;;;;;0.20;0.20;;;15.80;99.90;;;;;;5015191;28;20562;-72
2023/10/10 07:21:56;;;;;;;0.20;0.20;;;15.80;99.90;;;;;;5012325;28;20057;-73
2023/10/10 07:24:28;;;;;;;0.20;0.20;;;15.80;99.90;;;;;;5013782;28;20156;-72
2023/10/10 07:27:11;;;;;;;0.20;0.20;;;15.90;99.90;;;;;;5031948;28;20060;-72
2023/10/10 07:32:27;;;;;;;0.15;0.15;;;15.90;99.90;;;;;;5013753;28;20057;-72
2023/10/10 07:34:54;;;;;;;0.10;0.10;;;16.00;99.90;;;;;;5013435;28;20053;-71
2023/10/10 07:37:22;;;;;;;0.20;0.20;;;16.00;99.90;;;;;;5018390;28;20488;-72
2023/10/10 07:42:29;;;;;;;0.10;0.10;;;16.10;99.90;;;;;;5007905;28;20468;-72
2023/10/10 07:44:56;;;;;;;0.10;0.10;;;16.00;99.90;;;;;;5007376;28;20462;-72
2023/10/10 07:47:26;;;;;;;0.20;0.20;;;16.10;99.90;;;;;;5010204;28;20919;-72
2023/10/10 07:49:55;;;;;;;0.10;0.10;;;16.10;99.90;;;;;;5010817;28;20133;-72
2023/10/10 07:52:22;;;;;;;0.10;0.10;;;16.10;99.90;;;;;;5015629;28;20050;-72
2023/10/10 07:54:53;;;;;;;0.20;0.20;;;16.20;99.90;;;;;;5011291;28;20124;-72
2023/10/10 07:57:26;;;;;;;0.40;0.30;;;16.20;99.90;;;;;;5013806;28;20078;-72
2023/10/10 07:59:58;;;;;;;0.20;0.20;;;16.30;99.90;;;;;;5012147;28;20565;-72
2023/10/10 08:02:34;;;;;;;0.10;0.10;;;16.30;99.90;;;;;;5014416;28;20439;-72
2023/10/10 08:05:01;;;;;;;0.20;0.20;;;16.30;99.90;;;;;;5031074;28;20037;-72
2023/10/10 08:07:28;;;;;;;0.28;0.20;;;16.30;99.90;;;;;;5012276;28;20578;-72
2023/10/10 08:13:00;;;;;;;0.20;0.20;;;16.50;99.90;;;;;;4948936;29;20054;-72
2023/10/10 08:15:26;;;;;;;0.20;0.20;;;16.50;99.90;;;;;;4919474;29;20106;-72
2023/10/10 08:17:55;;;;;;;0.20;0.20;;;16.50;99.90;;;;;;4969519;28;20057;-73
2023/10/10 08:23:07;;;;;;;0.20;0.20;;;16.60;99.90;;;;;;5012489;28;20484;-72
2023/10/10 08:25:33;;;;;;;0.28;0.28;;;16.60;99.90;;;;;;5015764;28;20046;-72
2023/10/10 08:28:00;;;;;;;0.20;0.20;;;16.60;99.90;;;;;;5012338;28;20045;-72
2023/10/10 08:30:26;;;;;;;0.20;0.20;;;16.70;99.90;;;;;;5026222;28;20074;-72
2023/10/10 08:33:02;;;;;;;0.10;0.10;;;16.70;99.90;;;;;;5013872;28;20103;-72
2023/10/10 08:35:29;;;;;;;0.68;0.40;;;16.80;99.90;;;;;;5010965;28;20057;-72
2023/10/10 08:37:56;;;;;;;0.20;0.20;;;16.80;99.90;;;;;;5011327;28;20053;-72
2023/10/10 08:40:23;;;;;;;0.20;0.20;;;16.80;99.90;;;;;;5009427;28;20037;-72
2023/10/10 08:42:50;;;;;;;0.20;0.20;;;16.90;99.90;;;;;;5014394;28;20124;-72
2023/10/10 08:45:23;;;;;;;0.20;0.20;;;16.90;99.90;;;;;;5010040;28;20041;-72
2023/10/10 08:48:36;;;;;;;0.20;0.20;;;17.00;99.90;;;;;;5007582;28;20057;-72
2023/10/10 08:50:47;;;;;;;0.10;0.10;;;17.00;99.90;;;;;;5002194;28;20069;-72
2023/10/10 08:53:14;;;;;;;0.13;0.13;;;17.10;99.90;;;;;;5008900;28;20481;-72
2023/10/10 08:55:40;;;;;;;0.20;0.20;;;17.10;99.90;;;;;;5010147;28;20445;-73
2023/10/10 08:58:10;;;;;;;0.20;0.20;;;17.20;99.90;;;;;;5012677;28;20041;-72
2023/10/10 09:00:37;;;;;;;0.20;0.20;;;17.20;99.90;;;;;;5009544;28;20057;-72
2023/10/10 09:03:03;;;;;;;0.10;0.10;;;17.30;99.90;;;;;;5011244;28;20041;-72
2023/10/10 09:05:29;;;;;;;0.63;0.63;;;17.30;99.90;;;;;;5006914;28;20482;-72
2023/10/10 09:08:05;;;;;;;0.20;0.20;;;17.30;99.90;;;;;;5010499;28;20133;-72
2023/10/10 09:10:39;;;;;;;0.20;0.20;;;17.40;99.90;;;;;;5022334;28;20060;-72
2023/10/10 09:13:07;;;;;;;0.20;0.20;;;17.50;99.90;;;;;;5007546;28;20485;-72
2023/10/10 09:15:54;;;;;;;0.20;0.20;;;17.60;99.90;;;;;;5091730;27;20121;-71
2023/10/10 09:18:25;;;;;;;0.20;0.20;;;17.70;99.90;;;;;;5058561;28;20045;-71
2023/10/10 09:20:53;;;;;;;0.20;0.20;;;17.80;99.90;;;;;;5064698;28;20055;-71
2023/10/10 09:23:25;;;;;;;1.17;0.30;;;17.80;99.90;;;;;;5063405;28;20036;-71
2023/10/10 09:28:58;;;;;;;0.20;0.20;;;17.90;99.90;;;;;;5063014;28;20040;-86
2023/10/10 09:31:27;;;;;;;0.43;0.30;;;17.90;99.90;;;;;;5061891;28;20044;-88
2023/10/10 09:33:56;;;;;;;0.20;0.20;;;18.00;99.90;;;;;;5062167;28;20050;-86
2023/10/10 09:36:27;;;;;;;0.25;0.25;;;18.00;99.90;;;;;;5074944;28;20087;-87
2023/10/10 09:38:57;;;;;;;0.30;0.30;;;18.00;99.90;;;;;;5060909;28;20118;-86
2023/10/10 09:57:42;;;;;;;0.20;0.20;;;18.50;99.90;;;;;;5061525;28;20051;-86
2023/10/10 10:00:30;;;;;;;0.40;0.40;;;18.60;99.90;;;;;;5053700;28;20149;-89
2023/10/10 10:02:59;;;;;;;0.20;0.20;;;18.60;99.90;;;;;;5057960;28;20485;-90
2023/10/10 10:05:28;;;;;;;0.20;0.20;;;18.60;99.90;;;;;;5053379;28;20059;-91
2023/10/10 10:07:57;;;;;;;0.20;0.20;;;18.70;99.90;;;;;;5059388;28;20067;-83
2023/10/10 10:11:09;;;;;;;0.20;0.20;;;18.70;99.90;;;;;;5052224;28;20086;-85
2023/10/10 10:13:57;;;;;;;0.10;0.10;;;18.70;99.90;;;;;;5059230;28;20206;-85
2023/10/10 10:16:44;;;;;;;0.25;0.22;;;18.80;99.90;;;;;;5063431;28;20055;-85
2023/10/10 10:19:17;;;;;;;0.10;0.10;;;18.80;99.90;;;;;;5062263;28;20143;-84
2023/10/10 10:21:54;;;;;;;0.20;0.20;;;18.90;99.90;;;;;;5055592;28;20426;-87
2023/10/10 10:24:30;;;;;;;0.20;0.20;;;18.90;99.90;;;;;;5062775;28;20044;-89
2023/10/10 10:27:23;;;;;;;0.20;0.20;;;19.00;99.90;;;;;;5042312;28;20028;-88
2023/10/10 10:29:54;;;;;;;0.20;0.20;;;19.00;99.90;;;;;;5045398;28;20060;-90
2023/10/10 10:32:23;;;;;;;0.40;0.40;;;19.10;99.90;;;;;;5041585;28;20041;-88
2023/10/10 10:34:56;;;;;;;0.20;0.20;;;19.20;99.90;;;;;;5046001;28;20167;-86
2023/10/10 10:37:24;;;;;;;0.20;0.20;;;19.20;99.90;;;;;;5050499;28;20060;-90
2023/10/10 10:42:51;;;;;;;0.10;0.10;;;19.40;99.90;;;;;;5028548;28;20087;-87
2023/10/10 10:45:38;;;;;;;0.30;0.30;;;19.50;99.90;;;;;;5053340;28;20037;-90
2023/10/10 10:48:29;;;;;;;0.25;0.25;;;19.60;99.90;;;;;;5052812;28;20439;-89
2023/10/10 10:51:22;;;;;;;;;;;19.70;99.90;;;;;;5048066;28;20045;-89
2023/10/10 10:53:56;;;;;;;0.20;0.20;;;19.70;99.90;;;;;;5048186;28;19982;-88
2023/10/10 10:59:12;;;;;;;0.20;0.20;;;19.90;99.90;;;;;;5051860;28;20048;-88
2023/10/10 11:01:51;;;;;;;0.20;0.20;;;20.00;99.90;;;;;;5057565;28;20044;-88
2023/10/10 11:04:40;;;;;;;0.30;0.30;;;20.10;99.90;;;;;;5036886;28;20499;-87
2023/10/10 11:07:09;;;;;;;0.20;0.20;;;20.10;99.90;;;;;;5041768;28;20451;-88
2023/10/10 11:09:43;;;;;;;0.20;0.20;;;20.30;99.90;;;;;;5041733;28;20111;-86
2023/10/10 11:12:09;;;;;;;0.65;0.47;;;20.40;99.90;;;;;;5039288;28;20063;-87
2023/10/10 11:14:45;;;;;;;0.20;0.20;;;20.50;99.90;;;;;;5041350;28;20048;-87
2023/10/10 11:17:18;;;;;;;0.10;0.10;;;20.60;99.90;;;;;;5049810;28;20037;-86
2023/10/10 11:19:46;;;;;;;0.17;0.17;;;20.70;99.90;;;;;;5039792;28;20487;-88
2023/10/10 11:22:16;;;;;;;0.20;0.20;;;20.70;99.90;;;;;;5048386;28;20070;-87
2023/10/10 11:24:48;;;;;;;0.20;0.20;;;20.80;99.90;;;;;;5047677;28;20094;-88
2023/10/10 11:27:14;;;;;;;0.20;0.20;;;20.80;99.90;;;;;;5029209;28;20037;-86
2023/10/10 11:29:45;;;;;;;0.20;0.20;;;20.80;99.90;;;;;;5035121;28;20510;-83
2023/10/10 11:32:24;;;;;;;0.30;0.30;;;20.80;99.90;;;;;;5065667;28;20098;-85
2023/10/10 11:34:51;;;;;;;0.20;0.20;;;20.70;99.90;;;;;;5044070;28;20071;-88
2023/10/10 11:37:23;;;;;;;0.20;0.20;;;20.80;99.90;;;;;;5045011;28;20041;-88
2023/10/10 11:40:19;;;;;;;0.20;0.20;;;20.80;99.90;;;;;;5070830;28;20048;-87
2023/10/10 11:43:04;;;;;;;0.20;0.20;;;20.90;99.90;;;;;;5062469;28;20080;-85
2023/10/10 11:45:49;;;;;;;0.20;0.20;;;21.00;99.90;;;;;;5045601;28;20053;-88
2023/10/10 11:48:15;;;;;;;0.30;0.30;;;21.10;99.90;;;;;;5049936;28;20037;-82
2023/10/10 11:50:56;;;;;;;0.20;0.20;;;21.30;99.90;;;;;;5040867;28;20443;-80
2023/10/10 11:53:27;;;;;;;0.20;0.20;;;21.40;99.90;;;;;;5060085;28;20571;-86
2023/10/10 11:56:04;;;;;;;0.20;0.20;;;21.50;99.90;;;;;;5039347;28;20079;-85
2023/10/10 11:58:36;;;;;;;0.20;0.20;;;21.60;99.90;;;;;;5051608;28;20132;-85
2023/10/10 12:01:06;;;;;;;0.20;0.20;;;21.70;99.90;;;;;;5045192;28;20041;-89
2023/10/10 12:06:04;;;;;;;0.20;0.20;;;21.90;99.90;;;;;;5061601;28;20400;-84
2023/10/10 12:08:30;;;;;;;0.20;0.20;;;21.90;99.90;;;;;;5051284;28;20104;-84
2023/10/10 12:11:06;;;;;;;0.20;0.20;;;21.90;99.90;;;;;;5036365;28;20052;-86
2023/10/10 12:16:10;;;;;;;0.20;0.20;;;22.10;99.90;;;;;;5062274;28;20131;-70
2023/10/10 12:18:44;;;;;;;0.20;0.20;;;22.30;99.90;;;;;;5068314;28;20036;-70
2023/10/10 12:21:20;;;;;;;0.22;0.20;;;22.50;99.90;;;;;;5039958;28;20041;-70
2023/10/10 12:23:56;;;;;;;0.20;0.20;;;22.70;99.90;;;;;;5036711;28;20080;-70
2023/10/10 12:26:23;;;;;;;0.20;0.20;;;22.90;99.90;;;;;;5056862;28;20041;-70
2023/10/10 12:28:55;;;;;;;0.20;0.20;;;23.00;99.90;;;;;;5034204;28;20095;-70
2023/10/10 12:31:22;;;;;;;0.20;0.20;;;23.00;99.90;;;;;;5067687;28;20042;-70
2023/10/10 12:33:48;;;;;;;0.20;0.20;;;23.00;99.90;;;;;;5043089;28;20048;-71
2023/10/10 12:36:18;;;;;;;0.20;0.20;;;23.10;99.90;;;;;;5040476;28;20132;-71
2023/10/10 12:38:44;;;;;;;0.20;0.20;;;23.20;99.90;;;;;;5049343;28;20052;-70
2023/10/10 12:41:13;;;;;;;0.20;0.20;;;23.40;99.90;;;;;;5049394;28;20119;-70
2023/10/10 12:43:39;;;;;;;0.20;0.20;;;23.90;99.90;;;;;;5041510;28;20128;-71
2023/10/10 12:46:07;;;;;;;0.20;0.20;;;24.50;99.90;;;;;;5039074;28;20060;-71
2023/10/10 12:48:39;;;;;;;0.20;0.20;;;24.90;99.90;;;;;;5031623;28;20049;-71
2023/10/10 12:51:09;;;;;;;0.20;0.20;;;25.40;99.90;;;;;;5045849;28;20044;-71
2023/10/10 12:53:39;;;;;;;0.20;0.20;;;26.00;99.90;;;;;;5047588;28;20561;-71
2023/10/10 12:56:06;;;;;;;0.17;0.17;;;26.30;99.90;;;;;;5067762;28;20084;-71
2023/10/10 12:58:32;;;;;;;0.20;0.20;;;26.60;99.90;;;;;;5067843;28;20051;-71
2023/10/10 13:00:58;;;;;;;0.20;0.20;;;26.60;99.90;;;;;;5062950;28;20048;-70
2023/10/10 13:03:29;;;;;;;0.20;0.20;;;26.40;99.90;;;;;;5057501;28;20396;-70
2023/10/10 13:05:58;;;;;;;;;;;26.10;99.90;;;;;;5030808;28;20052;-70
2023/10/10 13:08:38;;;;;;;0.20;0.20;;;25.80;99.90;;;;;;5047128;28;20024;-70
2023/10/10 13:11:30;;;;;;;0.20;0.20;;;25.80;99.90;;;;;;5051177;28;20044;-70
2023/10/10 13:13:56;;;;;;;0.20;0.20;;;25.70;99.90;;;;;;5040093;28;20059;-70
2023/10/10 13:16:24;;;;;;;0.40;0.30;;;25.30;99.90;;;;;;5043048;28;20062;-70
2023/10/10 13:18:51;;;;;;;0.20;0.20;;;25.00;99.90;;;;;;5050515;28;20040;-70
2023/10/10 13:21:20;;;;;;;0.13;0.13;;;24.70;99.90;;;;;;5040828;28;20632;-70
2023/10/10 13:23:52;;;;;;;0.20;0.20;;;24.90;99.90;;;;;;5054554;28;20102;-70
2023/10/10 13:26:21;;;;;;;0.20;0.20;;;25.60;99.90;;;;;;5037760;28;20048;-70
2023/10/10 13:28:48;;;;;;;0.20;0.20;;;26.40;99.90;;;;;;5030288;28;20499;-70
2023/10/10 13:31:18;;;;;;;0.20;0.20;;;26.60;99.90;;;;;;5034098;28;20099;-71
2023/10/10 13:33:44;;;;;;;0.20;0.20;;;26.30;99.90;;;;;;5047228;28;20033;-70
2023/10/10 13:36:12;;;;;;;0.20;0.20;;;25.80;99.90;;;;;;5030863;28;20045;-70
2023/10/10 13:38:47;;;;;;;0.20;0.20;;;25.30;99.90;;;;;;5041764;28;20497;-70
2023/10/10 13:41:16;;;;;;;0.20;0.20;;;24.90;99.90;;;;;;5040303;28;20048;-70
2023/10/10 13:43:49;;;;;;;0.20;0.20;;;24.40;99.90;;;;;;5031134;28;20044;-70
2023/10/10 13:46:18;;;;;;;0.20;0.20;;;24.10;99.90;;;;;;5031427;28;20452;-70
2023/10/10 13:48:47;;;;;;;0.20;0.20;;;23.70;99.90;;;;;;5031211;28;20125;-70
2023/10/10 13:51:14;;;;;;;0.20;0.20;;;23.30;99.90;;;;;;5046572;28;20045;-70
2023/10/10 13:53:40;;;;;;;0.20;0.20;;;22.90;99.90;;;;;;5050817;28;20439;-70
2023/10/10 13:56:07;;;;;;;0.20;0.20;;;22.60;99.90;;;;;;5049543;28;20094;-70
2023/10/10 13:58:34;;;;;;;0.20;0.20;;;22.40;99.90;;;;;;5039968;28;20392;-70
2023/10/10 14:01:18;;;;;;;0.20;0.20;;;22.10;99.90;;;;;;5032807;28;20060;-70
2023/10/10 14:03:46;;;;;;;0.45;0.45;;;21.90;99.90;;;;;;5035394;28;20533;-70
2023/10/10 14:06:45;;;;;;;0.20;0.20;;;21.80;99.90;;;;;;5036909;28;20051;-71
2023/10/10 14:09:03;;;;;;;0.20;0.20;;;21.70;99.90;;;;;;5034403;28;20080;-70
2023/10/10 14:11:32;;;;;;;0.20;0.20;;;21.60;99.90;;;;;;5060209;28;20049;-71
2023/10/10 14:13:59;;;;;;;0.20;0.20;;;21.50;99.90;;;;;;5041115;28;20049;-70
2023/10/10 14:16:24;;;;;;;0.20;0.20;;;21.40;99.90;;;;;;5034709;28;20076;-70
2023/10/10 14:18:50;;;;;;;0.20;0.20;;;21.30;99.90;;;;;;5034055;28;20445;-70
2023/10/10 14:21:23;;;;;;;0.20;0.20;;;21.20;99.90;;;;;;5052643;28;20045;-70
2023/10/10 14:23:49;;;;;;;0.20;0.20;;;21.20;99.90;;;;;;5037078;28;20086;-70
2023/10/10 14:26:18;;;;;;;0.20;0.20;;;21.20;99.90;;;;;;5045407;28;20041;-70
2023/10/10 14:28:51;;;;;;;0.20;0.20;;;21.10;99.90;;;;;;5034696;28;20115;-70
2023/10/10 14:31:19;;;;;;;0.20;0.20;;;21.10;99.90;;;;;;5052271;28;20037;-70
2023/10/10 14:33:44;;;;;;;0.20;0.20;;;21.10;99.90;;;;;;5041438;28;20048;-70
2023/10/10 14:36:13;;;;;;;0.20;0.20;;;21.00;99.90;;;;;;5053549;28;20143;-70
2023/10/10 14:38:48;;;;;;;0.20;0.20;;;21.00;99.90;;;;;;5047354;28;20044;-70
2023/10/10 14:41:32;;;;;;;0.20;0.20;;;20.90;99.90;;;;;;5052936;28;20040;-70
2023/10/10 14:44:00;;;;;;;0.20;0.20;;;20.90;99.90;;;;;;5053781;28;20046;-70
2023/10/10 14:46:31;;;;;;;0.20;0.20;;;20.80;99.90;;;;;;5053265;28;20033;-71
2023/10/10 14:49:05;;;;;;;0.20;0.20;;;20.80;99.90;;;;;;5050320;28;20045;-70
2023/10/10 14:51:35;;;;;;;0.20;0.20;;;20.70;99.90;;;;;;5056583;28;20080;-70
2023/10/10 14:54:11;;;;;;;0.20;0.20;;;20.70;99.90;;;;;;5047856;28;20044;-70
2023/10/10 14:56:50;;;;;;;0.20;0.20;;;20.60;99.90;;;;;;5053386;28;20435;-70
2023/10/10 14:59:18;;;;;;;0.20;0.20;;;20.60;99.90;;;;;;5034156;28;20037;-70
2023/10/10 15:01:50;;;;;;;0.20;0.20;;;20.50;99.90;;;;;;5055522;28;20045;-70
2023/10/10 15:04:17;;;;;;;0.20;0.20;;;20.50;99.90;;;;;;5059942;28;20131;-70
2023/10/10 15:06:45;;;;;;;0.20;0.20;;;20.50;99.90;;;;;;5057138;28;20049;-70
2023/10/10 15:09:14;;;;;;;0.30;0.30;;;20.50;99.90;;;;;;5058784;28;20033;-70
2023/10/10 15:11:44;;;;;;;0.20;0.20;;;20.50;99.90;;;;;;5055633;28;20257;-70
2023/10/10 15:14:10;;;;;;;0.20;0.20;;;20.50;99.90;;;;;;5058891;28;20067;-70
2023/10/10 15:16:37;;;;;;;0.20;0.20;;;20.50;99.90;;;;;;5033822;28;20056;-70
2023/10/10 15:19:06;;;;;;;0.20;0.20;;;20.50;99.90;;;;;;5045461;28;20546;-71
2023/10/10 15:21:35;;;;;;;0.20;0.20;;;20.50;99.90;;;;;;5043495;28;20055;-72
2023/10/10 15:24:08;;;;;;;0.20;0.20;;;20.50;99.90;;;;;;5055714;28;20044;-69
2023/10/10 15:26:34;;;;;;;0.20;0.20;;;20.50;99.90;;;;;;5042167;28;20135;-69
2023/10/10 15:29:00;;;;;;;0.20;0.20;;;20.50;99.90;;;;;;5064988;28;20147;-69
2023/10/10 15:31:29;;;;;;;0.20;0.20;;;20.50;99.90;;;;;;5042438;28;20046;-71
2023/10/10 15:33:57;;;;;;;0.20;0.20;;;20.50;99.90;;;;;;5043529;28;20060;-72
2023/10/10 15:36:23;;;;;;;0.20;0.20;;;20.50;99.90;;;;;;5065366;28;20388;-71
2023/10/10 15:38:49;;;;;;;0.20;0.20;;;20.40;99.90;;;;;;5040288;28;20052;-85
2023/10/10 15:41:20;;;;;;;0.50;0.50;;;20.40;99.90;;;;;;5039699;28;20048;-81
2023/10/10 15:43:49;;;;;;;;;;;20.40;99.90;;;;;;5050627;28;20410;-81
2023/10/10 15:46:25;;;;;;;0.20;0.20;;;20.40;99.90;;;;;;5048860;28;19927;-82
2023/10/10 15:48:51;;;;;;;0.20;0.20;;;20.30;99.90;;;;;;5049503;28;20408;-81
2023/10/10 15:51:21;;;;;;;0.20;0.20;;;20.30;99.90;;;;;;5047221;28;20075;-80
2023/10/10 15:53:48;;;;;;;0.20;0.20;;;20.20;99.90;;;;;;5042106;28;20438;-82
2023/10/10 15:56:15;;;;;;;0.20;0.20;;;20.20;99.90;;;;;;5042681;28;20310;-84
2023/10/10 15:58:49;;;;;;;0.20;0.20;;;20.10;99.90;;;;;;5050806;28;20115;-83
2023/10/10 16:01:27;;;;;;;0.20;0.20;;;20.10;99.90;;;;;;5043782;28;20041;-84
2023/10/10 16:04:12;;;;;;;0.20;0.20;;;20.10;99.90;;;;;;5043358;28;20044;-83
2023/10/10 16:06:39;;;;;;;0.20;0.20;;;20.00;99.90;;;;;;5047947;28;20076;-83
2023/10/10 16:09:11;;;;;;;0.20;0.20;;;19.90;99.90;;;;;;5045811;28;20040;-81
2023/10/10 16:11:37;;;;;;;0.20;0.20;;;19.90;99.90;;;;;;5048471;28;20033;-81